Time;durP1;ratioP1;P1;durP2;ratioP2;P2;SDS_P1;SDS_P2;PMS_P1;PMS_P2;Temp;Humidity;BMP_temperature;BMP_pressure;BME280_temperature;BME280_humidity;BME280_pressure;Samples;Min_cycle;Max_cycle;Signal;HPM_P1;HPM_P2
2022/10/15 00:01:39;;;;;;;16.90;15.40;;;;;;;20.25;41.21;95299.56;6111862;28;104358;-71
2022/10/15 00:04:42;;;;;;;15.30;14.00;;;;;;;20.24;41.29;95301.41;6099452;28;104446;-70
2022/10/15 00:07:46;;;;;;;16.30;14.83;;;;;;;20.24;41.53;95296.09;6115308;28;103572;-68
2022/10/15 00:10:50;;;;;;;15.70;14.40;;;;;;;20.25;41.45;95299.56;6111754;28;103205;-71
2022/10/15 00:13:54;;;;;;;16.10;14.70;;;;;;;20.24;41.52;95296.09;6112823;28;103349;-67
2022/10/15 00:16:57;;;;;;;15.47;14.17;;;;;;;20.24;41.70;95306.75;6101756;28;104058;-71
2022/10/15 00:20:01;;;;;;;15.93;14.60;;;;;;;20.24;41.54;95296.09;6111250;28;103573;-71
2022/10/15 00:23:04;;;;;;;15.60;14.10;;;;;;;20.23;41.71;95289.19;6111114;28;103236;-70
2022/10/15 00:26:11;;;;;;;16.50;15.00;;;;;;;20.24;41.60;95295.28;6111218;28;105869;-67
2022/10/15 00:29:14;;;;;;;14.87;13.57;;;;;;;20.23;41.82;95288.41;6106175;28;103152;-71
2022/10/15 00:32:18;;;;;;;14.30;13.10;;;;;;;20.23;41.60;95286.53;6110907;28;103280;-67
2022/10/15 00:35:21;;;;;;;16.03;14.63;;;;;;;20.23;41.91;95283.88;6108988;28;104047;-70
2022/10/15 00:38:24;;;;;;;14.17;12.97;;;;;;;20.24;42.01;95274.03;6103327;28;103285;-68
2022/10/15 00:41:31;;;;;;;14.70;13.50;;;;;;;20.24;41.88;95277.50;6108670;28;103125;-71
2022/10/15 00:44:53;;;;;;;15.67;14.27;;;;;;;20.24;41.85;95269.53;6111516;28;103010;-71
2022/10/15 00:47:56;;;;;;;14.80;13.40;;;;;;;20.23;41.98;95270.59;6111617;28;103212;-71
2022/10/15 00:51:04;;;;;;;14.40;13.20;;;;;;;20.23;41.97;95267.94;6100682;28;103402;-71
2022/10/15 00:54:10;;;;;;;14.80;13.50;;;;;;;20.23;41.96;95259.97;6114456;28;103399;-70
2022/10/15 00:57:14;;;;;;;15.37;14.03;;;;;;;20.23;42.13;95261.81;6115125;28;102833;-70
2022/10/15 01:00:19;;;;;;;14.90;13.60;;;;;;;20.23;41.99;95256.50;6114636;28;103539;-70
2022/10/15 01:03:22;;;;;;;15.17;13.90;;;;;;;20.22;42.02;95255.72;6104620;28;103613;-70
2022/10/15 01:06:26;;;;;;;14.60;13.40;;;;;;;20.22;41.89;95260.25;6113202;28;103106;-70
2022/10/15 01:09:29;;;;;;;14.90;13.60;;;;;;;20.23;42.09;95257.28;6105906;28;102794;-70
2022/10/15 01:12:45;;;;;;;14.73;13.53;;;;;;;20.23;42.25;95261.81;6110315;28;103369;-69
2022/10/15 01:15:55;;;;;;;13.60;12.50;;;;;;;20.22;42.21;95252.28;6110341;28;102864;-70
2022/10/15 01:19:04;;;;;;;14.63;13.33;;;;;;;20.20;41.94;95254.44;6102676;28;103057;-70
2022/10/15 01:22:10;;;;;;;15.13;13.83;;;;;;;20.22;42.15;95255.72;6115648;28;102830;-70
2022/10/15 01:25:27;;;;;;;14.87;13.57;;;;;;;20.20;42.42;95251.78;6091237;28;103087;-70
2022/10/15 01:28:43;;;;;;;15.00;13.70;;;;;;;20.21;42.63;95254.16;6114606;28;103691;-70
2022/10/15 01:31:56;;;;;;;13.83;12.73;;;;;;;20.21;42.09;95256.81;6114910;28;104013;-70
2022/10/15 01:35:09;;;;;;;13.40;12.40;;;;;;;20.20;42.24;95252.56;6108869;28;103195;-71
2022/10/15 01:38:23;;;;;;;13.70;12.50;;;;;;;20.21;42.27;95254.16;6109810;28;103028;-70
2022/10/15 01:41:33;;;;;;;13.40;12.20;;;;;;;20.22;42.64;95266.34;6114089;28;102819;-70
2022/10/15 01:44:42;;;;;;;13.47;12.27;;;;;;;20.22;42.36;95260.25;6114098;28;102817;-71
2022/10/15 01:47:51;;;;;;;13.40;12.20;;;;;;;20.21;42.31;95264.78;6102350;28;103538;-71
2022/10/15 01:50:58;;;;;;;13.87;12.67;;;;;;;20.21;41.84;95258.66;6113470;28;103228;-70
2022/10/15 01:54:04;;;;;;;13.07;11.97;;;;;;;20.21;42.33;95266.63;6113519;28;103096;-71
2022/10/15 01:57:10;;;;;;;12.70;11.60;;;;;;;20.21;42.22;95262.13;6113375;28;103675;-71
2022/10/15 02:00:13;;;;;;;14.10;12.80;;;;;;;20.20;42.40;95260.53;6103960;28;103223;-64
2022/10/15 02:03:18;;;;;;;13.17;12.10;;;;;;;20.21;42.53;95258.66;6112394;28;105171;-64
2022/10/15 02:06:25;;;;;;;13.33;12.13;;;;;;;20.21;42.33;95256.00;6110751;28;103544;-64
2022/10/15 02:09:38;;;;;;;12.80;11.77;;;;;;;20.20;42.25;95263.19;6107252;28;102923;-65
2022/10/15 02:12:57;;;;;;;13.30;12.00;;;;;;;20.20;42.42;95260.53;6110103;28;103383;-65
2022/10/15 02:16:11;;;;;;;12.30;11.30;;;;;;;20.21;42.40;95262.13;6125840;28;103199;-65
2022/10/15 02:19:24;;;;;;;12.20;11.20;;;;;;;20.21;42.49;95258.66;6121981;28;103348;-64
2022/10/15 02:22:33;;;;;;;13.50;12.40;;;;;;;20.20;42.55;95263.19;6103956;28;103333;-64
2022/10/15 02:25:40;;;;;;;12.27;11.17;;;;;;;20.21;42.49;95263.97;6112549;28;103197;-64
2022/10/15 02:28:48;;;;;;;12.13;11.13;;;;;;;20.20;42.68;95265.84;6114119;28;102865;-64
2022/10/15 02:31:52;;;;;;;12.10;11.10;;;;;;;20.20;42.49;95268.50;6109324;28;103181;-65
2022/10/15 02:34:58;;;;;;;11.40;10.50;;;;;;;20.20;42.51;95262.41;6106968;28;103800;-65
2022/10/15 02:38:06;;;;;;;12.20;11.20;;;;;;;20.21;42.68;95261.31;6113542;28;105598;-64
2022/10/15 02:41:10;;;;;;;11.67;10.67;;;;;;;20.20;42.34;95265.84;6112781;28;103057;-64
2022/10/15 02:44:13;;;;;;;12.10;10.90;;;;;;;20.20;42.45;95265.84;6102475;28;103107;-67
2022/10/15 02:47:16;;;;;;;11.40;10.43;;;;;;;20.20;42.75;95255.22;6111606;28;104713;-64
2022/10/15 02:50:21;;;;;;;11.90;10.90;;;;;;;20.20;42.45;95257.09;6113288;28;106128;-64
2022/10/15 02:53:24;;;;;;;11.23;10.33;;;;;;;20.19;42.69;95258.16;6112500;28;103109;-64
2022/10/15 02:56:27;;;;;;;10.80;9.90;;;;;;;20.19;42.65;95258.97;6100790;28;103801;-64
2022/10/15 02:59:35;;;;;;;10.47;9.67;;;;;;;20.20;42.65;95260.53;6113077;28;103028;-65
2022/10/15 03:02:38;;;;;;;10.90;10.00;;;;;;;20.19;42.59;95256.31;6111563;28;103088;-63
2022/10/15 03:05:43;;;;;;;10.60;9.80;;;;;;;20.19;42.66;95261.63;6111637;28;103437;-64
2022/10/15 03:08:46;;;;;;;11.43;10.43;;;;;;;20.20;42.63;95268.50;6113133;28;103001;-65
2022/10/15 03:11:49;;;;;;;9.63;8.73;;;;;;;20.18;43.28;95265.34;6112779;28;102707;-65
2022/10/15 03:14:53;;;;;;;10.27;9.27;;;;;;;20.18;43.19;95264.56;6110779;28;103129;-65
2022/10/15 03:17:58;;;;;;;9.80;9.00;;;;;;;20.17;42.95;95258.47;6104445;28;103109;-67
2022/10/15 03:21:05;;;;;;;8.83;8.13;;;;;;;20.16;43.41;95262.16;6104987;28;103634;-66
2022/10/15 03:24:08;;;;;;;9.00;8.20;;;;;;;20.16;43.07;95256.84;6113434;28;103086;-66
2022/10/15 03:27:11;;;;;;;8.10;7.30;;;;;;;20.17;43.69;95261.13;6112156;28;103027;-67
2022/10/15 03:30:14;;;;;;;8.00;7.23;;;;;;;20.18;43.46;95265.34;6101394;28;103280;-67
2022/10/15 03:33:17;;;;;;;7.43;6.70;;;;;;;20.27;44.50;95266.28;6110975;28;103245;-68
2022/10/15 03:36:26;;;;;;;8.03;6.70;;;;;;;20.36;44.89;95268.31;6114068;28;103950;-68
2022/10/15 03:39:29;;;;;;;6.70;6.20;;;;;;;20.40;45.14;95264.00;6111378;28;103243;-68
2022/10/15 03:42:32;;;;;;;7.57;6.43;;;;;;;20.42;44.93;95261.84;6100908;28;103221;-66
2022/10/15 03:45:35;;;;;;;6.70;6.20;;;;;;;20.45;44.84;95261.25;6110892;28;105451;-67
2022/10/15 03:48:38;;;;;;;7.80;6.60;;;;;;;20.43;44.83;95271.38;6111892;28;103121;-66
2022/10/15 03:51:43;;;;;;;6.30;5.70;;;;;;;20.41;44.22;95265.56;6113092;28;105948;-67
2022/10/15 03:54:46;;;;;;;6.90;6.03;;;;;;;20.41;43.92;95263.72;6100611;28;104205;-66
2022/10/15 03:57:49;;;;;;;6.63;5.63;;;;;;;20.37;44.41;95270.69;6112103;28;103019;-66
2022/10/15 04:00:52;;;;;;;5.37;4.90;;;;;;;20.37;43.64;95267.25;6115935;28;103237;-66
2022/10/15 04:03:55;;;;;;;5.47;5.00;;;;;;;20.31;43.92;95269.94;6106153;28;102912;-65
2022/10/15 04:07:00;;;;;;;4.63;4.33;;;;;;;20.28;44.16;95273.19;6106201;28;103076;-64
2022/10/15 04:10:03;;;;;;;5.33;4.67;;;;;;;20.30;44.60;95278.22;6110690;28;103136;-65
2022/10/15 04:13:07;;;;;;;5.20;4.50;;;;;;;20.32;44.67;95276.84;6109597;28;103182;-64
2022/10/15 04:16:10;;;;;;;5.20;4.63;;;;;;;20.39;44.10;95273.06;6106109;28;103025;-64
2022/10/15 04:19:13;;;;;;;4.73;4.27;;;;;;;20.40;44.40;95270.09;6134908;28;103238;-64
2022/10/15 04:22:18;;;;;;;4.77;4.30;;;;;;;20.38;44.56;95272.25;6104057;28;103247;-64
2022/10/15 04:25:21;;;;;;;4.60;4.20;;;;;;;20.40;44.41;95270.09;6105854;28;103084;-64
2022/10/15 04:28:24;;;;;;;9.33;7.93;;;;;;;20.41;44.69;95273.53;6103770;28;103229;-64
2022/10/15 04:31:28;;;;;;;20.30;12.63;;;;;;;20.41;44.51;95273.53;6115383;28;106545;-63
2022/10/15 04:34:31;;;;;;;12.73;11.63;;;;;;;20.39;44.79;95281.03;6113770;28;103077;-64
2022/10/15 04:37:35;;;;;;;16.23;12.17;;;;;;;20.42;45.22;95281.22;6117749;28;103504;-65
2022/10/15 04:40:40;;;;;;;14.90;13.37;;;;;;;20.38;45.34;95282.91;6102925;28;104661;-66
2022/10/15 04:43:43;;;;;;;13.30;12.00;;;;;;;20.38;44.83;95280.25;6114537;28;103121;-66
2022/10/15 04:46:46;;;;;;;13.23;11.80;;;;;;;20.36;44.75;95287.72;6112953;28;103263;-66
2022/10/15 04:49:49;;;;;;;11.93;10.13;;;;;;;20.32;45.35;95292.00;6111277;28;103531;-66
2022/10/15 04:52:54;;;;;;;11.97;10.67;;;;;;;20.29;44.98;95292.56;6110032;28;102810;-67
2022/10/15 04:56:00;;;;;;;11.53;10.53;;;;;;;20.25;45.03;95292.38;6115245;28;103691;-68
2022/10/15 04:59:07;;;;;;;11.00;10.00;;;;;;;20.25;44.99;95302.22;6114781;28;103004;-68
2022/10/15 05:02:10;;;;;;;10.00;9.20;;;;;;;20.24;44.91;95297.94;6103177;28;103369;-68
2022/10/15 05:05:13;;;;;;;11.53;10.53;;;;;;;20.20;45.06;95299.59;6113169;28;102875;-68
2022/10/15 05:08:18;;;;;;;10.40;9.50;;;;;;;20.21;44.93;95303.84;6112145;28;103234;-68
2022/10/15 05:11:23;;;;;;;11.57;10.57;;;;;;;20.18;44.80;95301.75;6112882;28;103045;-68
2022/10/15 05:14:27;;;;;;;10.33;9.33;;;;;;;20.19;44.78;95306.00;6101750;28;103185;-68
2022/10/15 05:17:30;;;;;;;10.13;9.17;;;;;;;20.19;44.91;95308.66;6113800;28;103216;-68
2022/10/15 05:20:33;;;;;;;9.60;8.70;;;;;;;20.18;44.73;95315.84;6114940;28;103212;-68
2022/10/15 05:23:38;;;;;;;11.80;9.53;;;;;;;20.17;44.77;95310.81;6111950;28;103770;-68
2022/10/15 05:26:41;;;;;;;10.67;9.67;;;;;;;20.15;44.76;95311.06;6108728;28;103567;-67
2022/10/15 05:29:44;;;;;;;10.07;9.17;;;;;;;20.13;45.12;95315.88;6114831;28;103022;-68
2022/10/15 05:32:52;;;;;;;10.00;9.00;;;;;;;20.14;44.48;95312.16;6114295;28;103149;-68
2022/10/15 05:35:55;;;;;;;10.50;9.47;;;;;;;20.13;44.64;95318.53;6104669;28;103370;-68
2022/10/15 05:39:01;;;;;;;9.37;8.47;;;;;;;20.13;44.69;95325.72;6114438;28;103212;-68
2022/10/15 05:42:05;;;;;;;9.07;8.37;;;;;;;20.12;44.57;95326.78;6114489;28;103265;-69
2022/10/15 05:45:09;;;;;;;9.70;8.90;;;;;;;20.12;44.52;95324.94;6114904;28;105603;-68
2022/10/15 05:48:12;;;;;;;9.17;8.33;;;;;;;20.11;44.53;95331.31;6103265;28;103283;-68
2022/10/15 05:51:16;;;;;;;8.77;7.97;;;;;;;20.10;44.40;95327.09;6114426;28;103152;-69
2022/10/15 05:54:20;;;;;;;9.77;8.97;;;;;;;20.11;44.47;95338.50;6114285;28;103016;-68
2022/10/15 05:57:23;;;;;;;9.13;8.33;;;;;;;20.09;44.44;95344.09;6114283;28;103209;-68
2022/10/15 06:00:27;;;;;;;9.00;8.20;;;;;;;20.11;44.36;95349.91;6103597;28;103094;-68
2022/10/15 06:03:31;;;;;;;8.70;8.00;;;;;;;20.09;44.59;95346.75;6113515;28;103008;-68
2022/10/15 06:06:35;;;;;;;8.40;7.70;;;;;;;20.10;44.37;95348.34;6113769;28;102822;-68
2022/10/15 06:09:40;;;;;;;9.07;8.27;;;;;;;20.10;44.34;95348.34;6107797;28;103207;-69
2022/10/15 06:12:43;;;;;;;9.67;8.70;;;;;;;20.07;44.42;95346.25;6111644;28;103141;-68
2022/10/15 06:15:46;;;;;;;8.97;8.27;;;;;;;20.08;44.29;95355.00;6114031;28;103554;-69
2022/10/15 06:18:49;;;;;;;8.07;7.40;;;;;;;20.10;44.19;95351.00;6113320;28;102933;-69
2022/10/15 06:21:53;;;;;;;8.50;7.80;;;;;;;20.11;44.17;95357.88;6103279;28;104125;-68
2022/10/15 06:24:57;;;;;;;8.90;8.10;;;;;;;20.11;44.09;95357.88;6113929;28;103600;-68
2022/10/15 06:28:02;;;;;;;8.30;7.60;;;;;;;20.16;43.95;95363.13;6113470;28;103041;-69
2022/10/15 06:31:06;;;;;;;8.37;7.63;;;;;;;20.16;43.54;95360.47;6113565;28;103274;-68
2022/10/15 06:34:09;;;;;;;7.53;6.93;;;;;;;20.23;43.99;95368.91;6103876;28;104295;-68
2022/10/15 06:37:12;;;;;;;8.10;7.40;;;;;;;20.34;43.76;95368.81;6113428;28;103224;-68
2022/10/15 06:40:17;;;;;;;8.00;7.30;;;;;;;20.38;43.63;95377.78;6113420;28;103518;-68
2022/10/15 06:43:20;;;;;;;8.27;7.60;;;;;;;20.43;43.66;95373.19;6108868;28;102973;-68
2022/10/15 06:46:23;;;;;;;8.10;7.50;;;;;;;20.57;43.28;95375.94;6107667;28;105804;-68
2022/10/15 06:49:27;;;;;;;8.23;7.53;;;;;;;20.74;42.94;95370.09;6111833;28;103301;-68
2022/10/15 06:52:31;;;;;;;8.30;7.50;;;;;;;20.88;42.95;95374.41;6113116;28;103131;-68
2022/10/15 06:55:38;;;;;;;7.77;7.17;;;;;;;21.01;42.59;95370.22;6102815;28;105298;-69
2022/10/15 06:58:42;;;;;;;7.57;6.87;;;;;;;21.06;42.91;95369.38;6112935;28;103057;-68
2022/10/15 07:01:47;;;;;;;7.70;7.10;;;;;;;21.11;42.58;95371.94;6113010;28;103388;-68
2022/10/15 07:04:50;;;;;;;7.60;7.00;;;;;;;21.21;42.17;95377.13;6112626;28;103079;-67
2022/10/15 07:07:54;;;;;;;7.33;6.63;;;;;;;21.24;42.22;95376.53;6102722;28;103620;-64
2022/10/15 07:11:01;;;;;;;8.30;7.60;;;;;;;21.32;42.61;95380.38;6113269;28;102836;-67
2022/10/15 07:14:05;;;;;;;7.23;6.63;;;;;;;21.39;42.35;95380.81;6113019;28;103052;-68
2022/10/15 07:17:08;;;;;;;8.10;7.40;;;;;;;21.42;42.35;95389.00;6111333;28;103090;-68
2022/10/15 07:20:11;;;;;;;8.10;7.40;;;;;;;21.49;42.18;95391.25;6105461;28;103940;-68
2022/10/15 07:23:15;;;;;;;7.77;7.10;;;;;;;21.55;42.50;95391.97;6112536;28;103057;-68
2022/10/15 07:26:19;;;;;;;8.20;7.50;;;;;;;21.55;42.26;95391.97;6112410;28;103092;-68
2022/10/15 07:29:22;;;;;;;7.80;7.13;;;;;;;21.65;42.45;95394.44;6103226;28;105819;-67
2022/10/15 07:32:26;;;;;;;7.87;7.27;;;;;;;21.66;42.35;95391.50;6112326;28;103489;-67
2022/10/15 07:35:29;;;;;;;6.83;6.33;;;;;;;21.72;42.06;95386.88;6111975;28;102919;-67
2022/10/15 07:38:32;;;;;;;7.30;6.70;;;;;;;21.65;42.52;95392.56;6112919;28;103763;-68
2022/10/15 07:41:37;;;;;;;7.50;6.80;;;;;;;21.65;42.28;95392.56;6101564;28;103064;-67
2022/10/15 07:44:40;;;;;;;7.67;6.97;;;;;;;21.73;42.03;95388.47;6112452;28;105936;-67
2022/10/15 07:47:44;;;;;;;7.60;7.00;;;;;;;21.75;42.27;95389.75;6112351;28;103375;-69
2022/10/15 07:50:47;;;;;;;7.50;6.90;;;;;;;21.76;42.06;95390.53;6110462;28;103052;-67
2022/10/15 07:53:50;;;;;;;7.80;7.10;;;;;;;21.82;42.37;95394.69;6102937;28;105478;-67
2022/10/15 07:56:55;;;;;;;7.10;6.53;;;;;;;21.89;42.03;95394.31;6111645;28;103375;-67
2022/10/15 07:59:58;;;;;;;7.20;6.60;;;;;;;21.95;41.97;95391.25;6112188;28;103217;-67
2022/10/15 08:03:02;;;;;;;7.00;6.50;;;;;;;21.99;41.74;95392.22;6109076;28;103080;-67
2022/10/15 08:06:07;;;;;;;7.03;6.53;;;;;;;22.06;42.01;95395.31;6111019;28;103578;-68
2022/10/15 08:09:10;;;;;;;6.80;6.23;;;;;;;22.08;42.22;95384.34;6116582;28;103122;-69
2022/10/15 08:12:15;;;;;;;7.03;6.50;;;;;;;22.06;41.67;95397.97;6116344;28;103071;-67
2022/10/15 08:15:18;;;;;;;7.33;6.73;;;;;;;22.11;42.07;95399.75;6104987;28;103283;-67
2022/10/15 08:18:21;;;;;;;7.20;6.50;;;;;;;22.11;41.68;95386.41;6115956;28;103118;-68
2022/10/15 08:21:24;;;;;;;6.67;6.17;;;;;;;22.19;41.95;95392.94;6115256;28;102929;-68
2022/10/15 08:24:29;;;;;;;6.77;6.23;;;;;;;22.22;41.70;95389.69;6116063;28;103011;-68
2022/10/15 08:27:33;;;;;;;6.40;5.90;;;;;;;22.21;41.61;95383.56;6105795;28;103259;-69
2022/10/15 08:30:37;;;;;;;6.10;5.70;;;;;;;22.07;41.70;95380.91;6116169;28;103172;-69
2022/10/15 08:33:40;;;;;;;6.67;6.17;;;;;;;22.03;42.19;95379.13;6115285;28;103193;-68
2022/10/15 08:36:43;;;;;;;6.60;6.10;;;;;;;22.06;41.84;95374.00;6112611;28;103242;-69
2022/10/15 08:39:46;;;;;;;6.60;6.10;;;;;;;22.03;42.26;95374.59;6110077;28;104366;-69
2022/10/15 08:42:51;;;;;;;5.93;5.53;;;;;;;22.02;42.32;95374.88;6115425;28;103194;-68
2022/10/15 08:45:58;;;;;;;6.83;6.23;;;;;;;22.03;42.40;95377.25;6115442;28;102783;-69
2022/10/15 08:49:03;;;;;;;6.77;6.27;;;;;;;22.02;42.06;95375.69;6105162;28;104448;-68
2022/10/15 08:52:16;;;;;;;6.40;5.90;;;;;;;22.01;42.58;95374.09;6114896;28;102808;-68
2022/10/15 08:55:22;;;;;;;7.10;6.60;;;;;;;22.03;42.35;95371.94;6115632;28;103098;-68
2022/10/15 08:58:34;;;;;;;6.30;5.80;;;;;;;22.03;42.16;95382.59;6111997;28;102906;-68
2022/10/15 09:01:50;;;;;;;6.50;6.00;;;;;;;22.00;42.02;95377.81;6104733;28;103030;-68
2022/10/15 09:05:00;;;;;;;5.57;5.17;;;;;;;22.03;42.36;95379.13;6114897;28;103030;-68
2022/10/15 09:08:13;;;;;;;6.23;5.73;;;;;;;22.02;42.42;95378.34;6115895;28;102872;-68
2022/10/15 09:11:21;;;;;;;6.50;6.00;;;;;;;22.03;42.48;95376.47;6109430;28;103251;-68
2022/10/15 09:14:31;;;;;;;5.80;5.40;;;;;;;22.03;42.23;95365.81;6111816;28;104105;-69
2022/10/15 09:17:36;;;;;;;6.23;5.70;;;;;;;22.01;41.93;95373.28;6115550;28;103140;-68
2022/10/15 09:20:39;;;;;;;6.43;5.83;;;;;;;21.98;42.05;95376.53;6114992;28;102875;-68
2022/10/15 09:23:44;;;;;;;6.40;5.90;;;;;;;21.99;42.07;95373.59;6105124;28;104049;-68
2022/10/15 09:26:56;;;;;;;5.90;5.40;;;;;;;22.03;42.29;95377.25;6114824;28;103097;-68
2022/10/15 09:30:07;;;;;;;5.70;5.30;;;;;;;22.07;41.76;95372.13;6115173;28;103225;-68
2022/10/15 09:33:22;;;;;;;6.83;6.30;;;;;;;22.07;41.80;95364.91;6114400;28;103242;-68
2022/10/15 09:36:38;;;;;;;5.70;5.30;;;;;;;22.09;41.95;95369.94;6106215;28;103506;-68
2022/10/15 09:40:10;;;;;;;6.27;5.77;;;;;;;22.07;41.96;95366.78;6111464;28;103308;-69
2022/10/15 09:43:14;;;;;;;5.60;5.17;;;;;;;22.10;41.76;95368.84;6094897;28;103228;-68
2022/10/15 09:46:18;;;;;;;5.53;5.13;;;;;;;22.10;41.75;95358.97;6105565;28;104441;-68
2022/10/15 09:49:26;;;;;;;6.27;5.80;;;;;;;22.13;41.98;95364.78;6113995;28;103119;-69
2022/10/15 09:52:51;;;;;;;5.93;5.53;;;;;;;22.09;42.35;95356.63;6114600;28;103437;-69
2022/10/15 09:56:03;;;;;;;6.33;5.83;;;;;;;22.08;42.03;95347.03;6113235;28;103771;-68
2022/10/15 09:59:06;;;;;;;6.13;5.73;;;;;;;22.09;42.26;95349.41;6104376;28;104014;-69
2022/10/15 10:02:20;;;;;;;5.13;4.83;;;;;;;22.11;42.09;95343.78;6114170;28;103436;-69
2022/10/15 10:05:29;;;;;;;5.90;5.50;;;;;;;22.10;41.92;95342.19;6113848;28;103007;-69
2022/10/15 10:08:37;;;;;;;5.97;5.50;;;;;;;22.10;42.20;95345.66;6103965;28;103997;-68
2022/10/15 10:11:48;;;;;;;5.37;4.97;;;;;;;22.04;42.43;95359.38;6113776;28;103023;-68
2022/10/15 10:14:56;;;;;;;5.90;5.50;;;;;;;21.98;42.61;95357.88;6114934;28;103256;-67
2022/10/15 10:18:00;;;;;;;5.73;5.33;;;;;;;21.93;41.97;95364.13;6114099;28;103064;-68
2022/10/15 10:21:06;;;;;;;5.97;5.50;;;;;;;21.86;42.35;95355.75;6103203;28;103248;-69
2022/10/15 10:24:22;;;;;;;5.50;5.10;;;;;;;21.82;42.76;95354.72;6113388;28;103290;-68
2022/10/15 10:27:30;;;;;;;5.30;4.90;;;;;;;21.78;42.32;95359.06;6113513;28;103029;-68
2022/10/15 10:30:36;;;;;;;5.93;5.43;;;;;;;21.78;42.82;95348.41;6109786;28;102830;-67
2022/10/15 10:33:47;;;;;;;5.03;4.63;;;;;;;21.80;42.44;95347.00;6107868;28;103212;-68
2022/10/15 10:36:52;;;;;;;5.53;5.13;;;;;;;21.81;42.54;95345.94;6114260;28;102855;-68
2022/10/15 10:39:57;;;;;;;5.30;4.90;;;;;;;21.83;42.43;95335.00;6113350;28;103039;-68
2022/10/15 10:43:11;;;;;;;6.17;5.57;;;;;;;21.78;42.50;95340.41;6102826;28;103470;-68
2022/10/15 10:46:18;;;;;;;5.80;5.40;;;;;;;21.75;42.48;95341.78;6114239;28;105768;-68
2022/10/15 10:49:31;;;;;;;5.43;5.03;;;;;;;21.72;42.79;95330.94;6113305;28;103399;-68
2022/10/15 10:52:36;;;;;;;4.80;4.50;;;;;;;21.75;42.57;95338.34;6114061;28;108077;-69
2022/10/15 10:55:40;;;;;;;5.33;4.93;;;;;;;21.71;42.28;95340.81;6102731;28;104069;-68
2022/10/15 10:58:43;;;;;;;5.80;5.40;;;;;;;21.75;42.55;95341.00;6112978;28;102848;-68
2022/10/15 11:01:47;;;;;;;5.10;4.70;;;;;;;21.72;42.33;95337.06;6113531;28;106365;-69
2022/10/15 11:04:51;;;;;;;5.50;5.10;;;;;;;21.67;42.61;95333.69;6108601;28;104808;-69
2022/10/15 11:08:05;;;;;;;5.33;4.93;;;;;;;21.67;42.70;95341.66;6108590;28;103041;-69
2022/10/15 11:11:15;;;;;;;5.97;5.47;;;;;;;21.70;42.77;95333.91;6113303;28;102909;-69
2022/10/15 11:14:30;;;;;;;5.10;4.80;;;;;;;21.67;42.63;95326.47;6111592;28;103106;-69
2022/10/15 11:17:44;;;;;;;5.70;5.20;;;;;;;21.69;42.57;95324.34;6102560;28;103135;-70
2022/10/15 11:20:58;;;;;;;5.67;5.27;;;;;;;21.68;42.38;95317.44;6113447;28;103154;-68
2022/10/15 11:24:17;;;;;;;4.80;4.50;;;;;;;21.65;42.34;95319.88;6112592;28;103056;-69
2022/10/15 11:27:39;;;;;;;5.23;4.83;;;;;;;21.64;42.34;95316.44;6108044;28;103320;-69
2022/10/15 11:30:51;;;;;;;5.33;4.90;;;;;;;21.64;43.07;95323.63;6109073;28;103328;-68
2022/10/15 11:34:11;;;;;;;5.33;4.93;;;;;;;21.69;43.23;95321.69;6112817;28;102828;-69
2022/10/15 11:37:30;;;;;;;6.07;5.47;;;;;;;21.72;43.99;95322.94;6112758;28;103072;-69
2022/10/15 11:40:48;;;;;;;5.33;4.97;;;;;;;21.68;43.91;95322.75;6102302;28;102985;-69
2022/10/15 11:44:09;;;;;;;5.90;5.40;;;;;;;21.67;43.65;95312.38;6112919;28;103461;-69
2022/10/15 11:47:26;;;;;;;6.00;5.43;;;;;;;21.67;44.01;95315.81;6112983;28;103115;-69
2022/10/15 11:50:32;;;;;;;5.70;5.30;;;;;;;21.65;43.58;95318.00;6103068;28;103316;-69
2022/10/15 11:54:09;;;;;;;5.50;5.10;;;;;;;21.69;43.95;95318.22;6112595;28;102931;-69
2022/10/15 11:57:15;;;;;;;7.03;4.90;;;;;;;21.68;43.68;95324.63;6112628;28;103422;-69
2022/10/15 12:00:30;;;;;;;5.07;4.67;;;;;;;21.64;44.37;95320.97;6113117;28;102766;-69
2022/10/15 12:03:40;;;;;;;5.73;5.10;;;;;;;21.64;44.37;95316.44;6101058;28;103728;-69
2022/10/15 12:06:50;;;;;;;5.70;5.30;;;;;;;21.62;44.23;95320.47;6111785;28;103509;-68
2022/10/15 12:10:01;;;;;;;5.40;5.00;;;;;;;21.51;43.82;95333.22;6112455;28;103608;-69
2022/10/15 12:13:12;;;;;;;5.53;5.13;;;;;;;21.46;43.98;95327.94;6106147;28;103294;-69
2022/10/15 12:16:24;;;;;;;5.70;5.30;;;;;;;21.41;43.83;95330.72;6111283;28;103230;-69
2022/10/15 12:19:37;;;;;;;5.90;5.50;;;;;;;21.39;44.21;95333.69;6112179;28;103246;-69
2022/10/15 12:22:53;;;;;;;5.40;5.10;;;;;;;21.35;44.15;95332.69;6111972;28;103225;-68
2022/10/15 12:25:58;;;;;;;5.60;5.10;;;;;;;21.34;43.75;95324.97;6101709;28;103333;-68
2022/10/15 12:29:02;;;;;;;5.43;5.03;;;;;;;21.33;43.79;95326.06;6112271;28;103207;-68
2022/10/15 12:32:19;;;;;;;5.80;5.40;;;;;;;21.31;44.19;95325.56;6111638;28;103025;-69
2022/10/15 12:35:33;;;;;;;5.97;5.47;;;;;;;21.30;44.00;95331.97;6106234;28;103266;-68
2022/10/15 12:38:40;;;;;;;5.63;5.23;;;;;;;21.29;43.71;95331.19;6106736;28;103265;-68
2022/10/15 12:41:47;;;;;;;5.30;4.90;;;;;;;21.26;43.68;95321.13;6111861;28;103111;-68
2022/10/15 12:44:51;;;;;;;5.83;5.33;;;;;;;21.26;43.71;95320.34;6112099;28;103369;-67
2022/10/15 12:48:12;;;;;;;5.80;5.40;;;;;;;21.24;44.21;95320.63;6101845;28;103649;-68
2022/10/15 12:51:40;;;;;;;5.53;5.13;;;;;;;21.24;43.75;95314.53;6115952;28;103423;-68
2022/10/15 12:54:45;;;;;;;5.53;5.13;;;;;;;21.24;43.73;95314.53;6115526;28;102940;-68
2022/10/15 12:57:54;;;;;;;5.90;5.50;;;;;;;21.22;43.98;95320.13;6115157;28;103083;-68
2022/10/15 13:00:57;;;;;;;5.73;5.33;;;;;;;21.21;43.37;95323.88;6108622;28;103402;-68
2022/10/15 13:04:01;;;;;;;5.40;5.00;;;;;;;21.22;43.58;95322.81;6116058;28;105115;-68
2022/10/15 13:07:05;;;;;;;5.63;5.13;;;;;;;21.23;43.73;95318.28;6114993;28;103141;-68
2022/10/15 13:10:20;;;;;;;5.23;4.83;;;;;;;21.20;43.54;95324.97;6105246;28;104342;-68
2022/10/15 13:13:29;;;;;;;5.90;5.40;;;;;;;21.20;43.72;95319.66;6115196;28;103227;-68
2022/10/15 13:16:32;;;;;;;5.80;5.40;;;;;;;21.19;43.51;95324.19;6115651;28;103053;-68
2022/10/15 13:19:38;;;;;;;5.50;5.10;;;;;;;21.19;43.48;95320.72;6115777;28;102791;-68
2022/10/15 13:22:42;;;;;;;5.67;5.17;;;;;;;21.19;43.89;95316.19;6105923;28;103577;-68
2022/10/15 13:25:45;;;;;;;5.83;5.33;;;;;;;21.19;43.54;95308.22;6115429;28;103443;-68
2022/10/15 13:28:51;;;;;;;5.37;4.97;;;;;;;21.20;43.37;95309.00;6114875;28;103010;-68
2022/10/15 13:31:57;;;;;;;5.60;5.20;;;;;;;21.19;43.44;95310.09;6113222;28;103376;-68
2022/10/15 13:35:02;;;;;;;5.30;4.90;;;;;;;21.20;43.58;95315.13;6107772;28;103202;-67
2022/10/15 13:38:05;;;;;;;5.77;5.37;;;;;;;21.21;43.34;95307.91;6114245;28;106105;-67
2022/10/15 13:41:09;;;;;;;5.40;5.00;;;;;;;21.21;43.37;95308.72;6115186;28;103223;-67
2022/10/15 13:44:22;;;;;;;4.83;4.50;;;;;;;21.20;43.53;95307.13;6104685;28;104066;-67
2022/10/15 13:47:28;;;;;;;5.03;4.70;;;;;;;21.23;43.62;95320.94;6114803;28;103090;-67
2022/10/15 13:50:34;;;;;;;5.20;4.80;;;;;;;21.20;43.37;95311.66;6114951;28;103131;-68
2022/10/15 13:53:40;;;;;;;5.27;4.87;;;;;;;21.19;43.83;95318.06;6114155;28;103097;-68
2022/10/15 13:56:48;;;;;;;5.33;4.93;;;;;;;21.20;43.62;95309.00;6104025;28;103825;-68
2022/10/15 13:59:53;;;;;;;5.30;4.90;;;;;;;21.22;43.20;95306.84;6113516;28;103619;-68
2022/10/15 14:03:14;;;;;;;5.10;4.70;;;;;;;21.19;43.60;95305.56;6115102;28;103680;-68
2022/10/15 14:06:20;;;;;;;5.00;4.60;;;;;;;21.19;43.17;95308.22;6108921;28;103090;-68
2022/10/15 14:09:27;;;;;;;4.90;4.60;;;;;;;21.15;43.53;95309.06;6107813;28;103258;-69
2022/10/15 14:12:30;;;;;;;5.07;4.77;;;;;;;21.15;43.27;95306.41;6114744;28;103162;-69
2022/10/15 14:15:52;;;;;;;5.00;4.70;;;;;;;21.15;43.65;95309.06;6114320;28;103026;-69
2022/10/15 14:18:58;;;;;;;4.90;4.50;;;;;;;21.13;43.38;95311.25;6103481;28;103108;-69
2022/10/15 14:22:02;;;;;;;4.80;4.50;;;;;;;21.13;43.65;95308.56;6114163;28;103435;-68
2022/10/15 14:25:10;;;;;;;5.00;4.60;;;;;;;21.13;43.32;95316.56;6113773;28;103248;-68